createdAt,value
2016-11-02T00:03:44.269Z,0
2016-11-02T00:08:40.690Z,0
2016-11-02T00:13:37.090Z,0
2016-11-02T00:18:34.342Z,0
2016-11-02T00:23:31.181Z,0
2016-11-02T00:28:27.746Z,0
2016-11-02T00:33:24.651Z,0
2016-11-02T00:38:21.213Z,0
2016-11-02T00:43:17.875Z,0
2016-11-02T00:48:14.293Z,0
2016-11-02T00:53:10.368Z,0
2016-11-02T00:58:06.870Z,0
2016-11-02T01:03:03.332Z,0
2016-11-02T01:07:59.987Z,0
2016-11-02T01:12:56.484Z,0
2016-11-02T01:17:54.032Z,0
2016-11-02T01:22:49.925Z,0
2016-11-02T01:27:46.645Z,0
2016-11-02T01:32:44.127Z,0
2016-11-02T01:37:40.425Z,0
2016-11-02T01:42:37.513Z,0
2016-11-02T01:47:33.898Z,0
2016-11-02T01:52:30.255Z,0
2016-11-02T01:57:26.707Z,0
2016-11-02T02:02:23.769Z,0
2016-11-02T02:07:21.289Z,0
2016-11-02T02:12:17.283Z,0
2016-11-02T02:17:13.386Z,0
2016-11-02T02:22:11.026Z,0
2016-11-02T02:27:07.085Z,0
2016-11-02T02:32:03.366Z,0
2016-11-02T02:36:59.632Z,0
2016-11-02T02:41:56.406Z,0
2016-11-02T02:46:53.016Z,0
2016-11-02T02:51:49.434Z,0
2016-11-02T02:56:47.409Z,0
2016-11-02T03:01:43.738Z,0
2016-11-02T03:06:40.011Z,0
2016-11-02T03:11:36.501Z,0
2016-11-02T03:16:33.205Z,0
2016-11-02T03:21:29.570Z,0
2016-11-02T03:26:25.852Z,0
2016-11-02T03:31:22.322Z,0
2016-11-02T03:36:18.918Z,0
2016-11-02T03:41:15.084Z,0
2016-11-02T03:46:11.632Z,0
2016-11-02T03:51:07.819Z,0
2016-11-02T03:56:04.262Z,0
2016-11-02T04:01:02.184Z,0
2016-11-02T04:05:58.511Z,0
2016-11-02T04:10:54.833Z,0
2016-11-02T04:15:51.409Z,0
2016-11-02T04:20:47.831Z,0
2016-11-02T04:25:44.279Z,0
2016-11-02T04:30:40.758Z,0
2016-11-02T04:35:37.081Z,0
2016-11-02T04:40:33.873Z,0
2016-11-02T04:45:30.323Z,0
2016-11-02T04:50:26.515Z,0
2016-11-02T04:55:24.534Z,0
2016-11-02T05:00:20.770Z,0
2016-11-02T05:05:18.067Z,0
2016-11-02T05:10:15.085Z,0
2016-11-02T05:15:11.677Z,0
2016-11-02T05:20:08.222Z,0
2016-11-02T05:25:04.836Z,0
2016-11-02T05:30:01.273Z,0
2016-11-02T05:34:57.799Z,0
2016-11-02T05:39:54.477Z,0
2016-11-02T05:44:50.976Z,0
2016-11-02T05:49:47.213Z,0
2016-11-02T05:54:44.380Z,0
2016-11-02T05:59:40.907Z,4
2016-11-02T06:04:37.514Z,4
2016-11-02T06:09:33.945Z,4
2016-11-02T06:14:30.345Z,8
2016-11-02T06:19:26.832Z,32
2016-11-02T06:24:23.225Z,108
2016-11-02T06:29:19.913Z,196
2016-11-02T06:34:16.469Z,232
2016-11-02T06:39:12.826Z,344
2016-11-02T06:44:09.504Z,404
2016-11-02T06:49:05.962Z,580
2016-11-02T06:54:02.168Z,568
2016-11-02T06:58:58.650Z,972
2016-11-02T07:03:55.355Z,884
2016-11-02T07:08:52.028Z,708
2016-11-02T07:13:48.623Z,596
2016-11-02T07:18:45.198Z,552
2016-11-02T07:23:41.826Z,956
2016-11-02T07:28:38.373Z,1680
2016-11-02T07:33:35.399Z,2788
2016-11-02T07:38:32.098Z,3468
2016-11-02T07:43:28.495Z,3320
2016-11-02T07:48:25.030Z,3924
2016-11-02T07:53:22.258Z,1876
2016-11-02T07:58:18.587Z,2024
2016-11-02T08:03:16.307Z,3504
2016-11-02T08:08:12.367Z,2840
2016-11-02T08:13:08.929Z,3564
2016-11-02T08:18:05.285Z,2128
2016-11-02T08:23:01.362Z,1716
2016-11-02T08:27:57.651Z,2088
2016-11-02T08:32:54.195Z,2332
2016-11-02T08:37:50.770Z,3616
2016-11-02T08:42:47.390Z,2860
2016-11-02T08:47:44.783Z,4244
2016-11-02T08:52:41.431Z,3720
2016-11-02T08:57:38.297Z,2544
2016-11-02T09:02:35.520Z,5616
2016-11-02T09:07:32.453Z,7108
2016-11-02T09:12:29.009Z,2548
2016-11-02T09:17:28.019Z,4580
2016-11-02T09:22:24.189Z,9396
2016-11-02T09:27:20.976Z,5904
2016-11-02T09:32:17.303Z,5288
2016-11-02T09:37:13.612Z,6812
2016-11-02T09:42:10.033Z,5188
2016-11-02T09:47:06.155Z,6560
2016-11-02T09:52:03.766Z,9644
2016-11-02T09:57:01.053Z,6752
2016-11-02T10:01:57.904Z,9088
2016-11-02T10:06:54.419Z,3552
2016-11-02T10:16:53.355Z,6864
2016-11-02T10:21:51.174Z,9968
2016-11-02T10:26:50.259Z,9800
2016-11-02T10:31:47.171Z,13136
2016-11-02T10:36:45.231Z,6632
2016-11-02T10:41:41.957Z,4496
2016-11-02T10:46:38.596Z,5448
2016-11-02T10:51:36.377Z,3856
2016-11-02T10:56:32.585Z,5496
2016-11-02T11:06:31.365Z,6720
2016-11-02T11:11:28.244Z,6808
2016-11-02T11:16:24.959Z,11064
2016-11-02T11:21:22.205Z,5920
2016-11-02T11:26:18.860Z,6456
2016-11-02T11:31:15.776Z,5852
2016-11-02T11:36:13.782Z,8120
2016-11-02T11:41:10.271Z,3348
2016-11-02T11:46:07.609Z,4548
2016-11-02T11:51:05.585Z,7532
2016-11-02T11:56:02.589Z,3528
2016-11-02T12:00:58.771Z,5104
2016-11-02T12:05:55.592Z,3920
2016-11-02T12:10:51.964Z,6956
2016-11-02T12:15:49.631Z,8012
2016-11-02T12:20:45.973Z,7456
2016-11-02T12:25:43.292Z,8932
2016-11-02T12:30:41.103Z,4024
2016-11-02T12:35:37.258Z,4408
2016-11-02T12:40:35.158Z,4552
2016-11-02T12:45:31.913Z,2960
2016-11-02T12:50:28.841Z,2916
2016-11-02T12:55:24.606Z,3652
2016-11-02T13:00:23.516Z,4764
2016-11-02T13:05:20.161Z,4216
2016-11-02T13:10:18.570Z,6284
2016-11-02T13:15:15.847Z,6036
2016-11-02T13:20:12.497Z,5440
2016-11-02T13:25:16.305Z,4756
2016-11-02T13:30:12.021Z,1976
2016-11-02T13:35:08.488Z,3904
2016-11-02T13:40:09.132Z,4772
2016-11-02T13:45:05.912Z,2924
2016-11-02T13:50:02.049Z,2380
2016-11-02T13:54:58.507Z,2424
2016-11-02T13:59:55.428Z,2812
2016-11-02T14:04:52.430Z,2324
2016-11-02T14:09:51.808Z,3184
2016-11-02T14:14:47.318Z,3436
2016-11-02T14:19:44.181Z,3404
2016-11-02T14:24:41.817Z,4212
2016-11-02T14:29:38.391Z,2872
2016-11-02T14:34:35.024Z,3636
2016-11-02T14:39:33.973Z,3524
2016-11-02T14:44:32.418Z,2996
2016-11-02T14:49:28.446Z,2568
2016-11-02T14:54:25.670Z,1968
2016-11-02T14:59:24.767Z,1600
2016-11-02T15:04:21.609Z,1384
2016-11-02T15:09:18.295Z,1228
2016-11-02T15:14:15.085Z,1076
2016-11-02T15:24:18.353Z,884
2016-11-02T15:29:14.540Z,716
2016-11-02T15:34:11.671Z,592
2016-11-02T15:39:09.572Z,468
2016-11-02T15:44:05.592Z,344
2016-11-02T15:49:03.278Z,268
2016-11-02T15:53:59.741Z,172
2016-11-02T15:58:55.964Z,100
2016-11-02T16:03:52.838Z,68
2016-11-02T16:08:49.540Z,40
2016-11-02T16:13:46.364Z,20
2016-11-02T16:18:43.473Z,12
2016-11-02T16:23:40.143Z,4
2016-11-02T16:28:36.644Z,0
2016-11-02T16:33:34.088Z,0
2016-11-02T16:38:30.164Z,0
2016-11-02T16:43:26.809Z,0
2016-11-02T16:48:23.364Z,0
2016-11-02T16:53:21.312Z,0
2016-11-02T16:58:17.332Z,0
2016-11-02T17:03:14.009Z,0
2016-11-02T17:08:12.909Z,0
2016-11-02T17:13:09.221Z,0
2016-11-02T17:18:05.740Z,0
2016-11-02T17:23:03.674Z,0
2016-11-02T17:28:00.284Z,0
2016-11-02T17:32:56.462Z,0
2016-11-02T17:37:52.671Z,0
2016-11-02T17:42:49.323Z,0
2016-11-02T17:47:45.685Z,0
2016-11-02T17:52:41.901Z,0
2016-11-02T17:57:38.403Z,0
2016-11-02T18:02:35.960Z,0
2016-11-02T18:07:32.743Z,0
2016-11-02T18:12:28.916Z,0
2016-11-02T18:17:25.449Z,0
2016-11-02T18:22:21.773Z,0
2016-11-02T18:27:18.106Z,0
2016-11-02T18:32:15.499Z,0
2016-11-02T18:37:17.377Z,0
2016-11-02T18:42:13.818Z,0
2016-11-02T18:47:12.020Z,0
2016-11-02T18:52:08.163Z,0
2016-11-02T18:57:06.342Z,0
2016-11-02T19:02:02.605Z,0
2016-11-02T19:06:58.785Z,0
2016-11-02T19:11:57.354Z,0
2016-11-02T19:16:55.638Z,0
2016-11-02T19:21:55.570Z,0
2016-11-02T19:26:51.227Z,0
2016-11-02T19:31:47.697Z,0
2016-11-02T19:36:45.391Z,0
2016-11-02T19:41:43.318Z,0
2016-11-02T19:46:42.235Z,0
2016-11-02T19:51:38.051Z,0
2016-11-02T19:56:35.027Z,0
2016-11-02T20:01:31.425Z,0
2016-11-02T20:06:28.017Z,0
2016-11-02T20:11:24.929Z,0
2016-11-02T20:16:21.190Z,0
2016-11-02T20:21:17.729Z,0
2016-11-02T20:26:14.584Z,0
2016-11-02T20:31:11.411Z,0
2016-11-02T20:36:08.153Z,0
2016-11-02T20:41:05.019Z,0
2016-11-02T20:46:01.793Z,0
2016-11-02T20:56:05.470Z,0
2016-11-02T21:01:01.777Z,0
2016-11-02T21:06:01.417Z,0
2016-11-02T21:10:59.401Z,0
2016-11-02T21:15:56.050Z,0
2016-11-02T21:36:06.527Z,0
2016-11-02T21:41:05.210Z,0
2016-11-02T21:46:05.378Z,0
2016-11-02T21:51:00.793Z,0
2016-11-02T21:56:02.809Z,0
2016-11-02T22:00:57.618Z,0
2016-11-02T22:05:54.072Z,0
2016-11-02T22:10:54.992Z,0
2016-11-02T22:15:50.639Z,0
2016-11-02T22:20:49.919Z,0
2016-11-02T22:25:48.195Z,0
2016-11-02T22:30:44.354Z,0
2016-11-02T22:35:42.382Z,0
2016-11-02T22:40:40.684Z,0
2016-11-02T22:45:40.740Z,0
2016-11-02T22:50:37.059Z,0
2016-11-02T22:55:35.497Z,0
2016-11-02T23:00:31.983Z,0
2016-11-02T23:05:34.607Z,0
2016-11-02T23:10:33.930Z,0
2016-11-02T23:15:31.359Z,0
2016-11-02T23:20:28.016Z,0
2016-11-02T23:25:26.138Z,0
2016-11-02T23:30:24.708Z,0
2016-11-02T23:35:24.016Z,0
2016-11-02T23:40:20.179Z,0
2016-11-02T23:45:17.925Z,0
2016-11-02T23:50:14.217Z,0
2016-11-02T23:55:13.445Z,0
